Weather History for Muscatine, IA

Change the Weather History Date:

Tuesday, December 17, 2013

  Actual Average Record
Temperature  
Mean Temperature 27 °F -  
Max Temperature 37 °F 32 °F 53 °F (1977)
Min Temperature 17 °F 17 °F -7 °F (1972)
Degree Days  
Heating Degree Days 38    
Moisture  
Dew Point 20 °F    
Average Humidity 74    
Maximum Humidity 93    
Minimum Humidity 48    
Precipitation  
Precipitation 0.00 in - - ()
Sea Level Pressure  
Sea Level Pressure 30.12 in    
Wind  
Wind Speed 11 mph (West)    
Max Wind Speed 28 mph    
Max Gust Speed 34 mph    
Visibility 9 miles    
Events      
Averages and records for this station are not official NWS values.
T = Trace of Precipitation, MM = Missing Value Source: NWS Daily Summary

Daily Weather History Graph

Daily Weather History Graph

Search for Another Location

Airport:

Trip Planner

Search our weather history database for the weather conditions in past years. The results will help you decide how hot, cold, wet, or windy it might be!

Date:

Astronomy

Dec. 17, 2013 Rise Set
Actual Time 7:25 AM CST 4:36 PM CST
Civil Twilight 6:53 AM CST 5:08 PM CST
Nautical Twilight 6:18 AM CST 5:42 PM CST
Astronomical Twilight 5:45 AM CST 6:16 PM CST
Moon 5:17 PM CST (12/17) 7:20 AM CST (12/17)
Length of Visible Light 10h 14m
Length of Day
9h 11m
Full, 100% of the Moon is Illuminated
Dec 17
Full
Dec 25
Last Quarter
Jan 1
New
Jan 7
First Quarter
Jan 15
Full

Hourly Weather History & Observations

Time (CST) Temp. Windchill Dew Point Humidity Pressure Visibility Wind Dir Wind Speed Gust Speed Precip Events Conditions
12:15 AM 24.8 °F 16.1 °F 23.0 °F 93% 30.12 in 6.0 mi WNW 8.1 mph - N/A   Overcast
12:35 AM 24.8 °F 19.1 °F 21.2 °F 86% 30.11 in 6.0 mi WNW 4.6 mph - N/A   Overcast
12:55 AM 24.8 °F 16.1 °F 21.2 °F 86% 30.11 in 6.0 mi WNW 8.1 mph - N/A   Overcast
1:15 AM 24.8 °F 19.1 °F 21.2 °F 86% 30.10 in 7.0 mi West 4.6 mph - N/A   Overcast
1:35 AM 23.0 °F 15.8 °F 19.4 °F 86% 30.11 in 7.0 mi SW 5.8 mph - N/A   Overcast
1:55 AM 23.0 °F 15.8 °F 19.4 °F 86% 30.12 in 7.0 mi SW 5.8 mph - N/A   Overcast
2:15 AM 23.0 °F 17.0 °F 19.4 °F 86% 30.11 in 6.0 mi SW 4.6 mph - N/A   Overcast
2:35 AM 21.2 °F 14.9 °F 19.4 °F 93% 30.11 in 5.0 mi SSW 4.6 mph - N/A   Scattered Clouds
2:55 AM 21.2 °F 12.6 °F 19.4 °F 93% 30.10 in 6.0 mi SW 6.9 mph - N/A   Clear
3:15 AM 19.4 °F 12.8 °F 17.6 °F 93% 30.10 in 7.0 mi Variable 4.6 mph - N/A   Clear
3:35 AM 21.2 °F 10.1 °F 17.6 °F 86% 30.11 in 9.0 mi WSW 10.4 mph - N/A   Clear
3:55 AM 21.2 °F 11.7 °F 17.6 °F 86% 30.10 in 9.0 mi SW 8.1 mph - N/A   Clear
4:15 AM 21.2 °F 12.6 °F 17.6 °F 86% 30.10 in 8.0 mi SW 6.9 mph - N/A   Clear
4:35 AM 19.4 °F 9.5 °F 17.6 °F 93% 30.09 in 8.0 mi SW 8.1 mph - N/A   Clear
4:55 AM 19.4 °F 11.5 °F 17.6 °F 93% 30.08 in 7.0 mi SW 5.8 mph - N/A   Partly Cloudy
5:15 AM 17.6 °F 8.2 °F 15.8 °F 93% 30.08 in 7.0 mi SSW 6.9 mph - N/A   Partly Cloudy
5:35 AM 19.4 °F 11.5 °F 17.6 °F 93% 30.09 in 7.0 mi Variable 5.8 mph - N/A   Mostly Cloudy
5:55 AM 21.2 °F 14.9 °F 19.4 °F 93% 30.07 in 7.0 mi Variable 4.6 mph - N/A   Overcast
6:15 AM 21.2 °F - 19.4 °F 93% 30.07 in 7.0 mi Calm Calm - N/A   Overcast
6:35 AM 23.0 °F 17.0 °F 19.4 °F 86% 30.06 in 8.0 mi SSE 4.6 mph - N/A   Overcast
6:55 AM 23.0 °F 14.7 °F 19.4 °F 86% 30.07 in 9.0 mi Variable 6.9 mph - N/A   Overcast
7:15 AM 24.8 °F 13.4 °F 21.2 °F 86% 30.07 in 8.0 mi West 12.7 mph - N/A   Overcast
7:35 AM 24.8 °F 12.4 °F 21.2 °F 86% 30.06 in 8.0 mi WSW 15.0 mph - N/A   Overcast
7:55 AM 26.6 °F 14.7 °F 23.0 °F 86% 30.07 in 10.0 mi West 15.0 mph 20.7 mph N/A   Overcast
8:15 AM 28.4 °F 17.5 °F 24.8 °F 86% 30.08 in 10.0 mi West 13.8 mph - N/A   Overcast
8:35 AM 30.2 °F 19.8 °F 24.8 °F 80% 30.08 in 10.0 mi West 13.8 mph 20.7 mph N/A   Mostly Cloudy
8:55 AM 30.2 °F 19.8 °F 24.8 °F 80% 30.09 in 10.0 mi West 13.8 mph - N/A   Mostly Cloudy
9:15 AM 32.0 °F 21.2 °F 24.8 °F 75% 30.09 in 10.0 mi West 16.1 mph - N/A   Mostly Cloudy
9:35 AM 32.0 °F 22.1 °F 24.8 °F 75% 30.08 in 10.0 mi West 13.8 mph - N/A   Mostly Cloudy
9:55 AM 32.0 °F 20.8 °F 26.6 °F 80% 30.10 in 10.0 mi West 17.3 mph - N/A   Mostly Cloudy
10:15 AM 33.8 °F 23.9 °F 26.6 °F 75% 30.10 in 10.0 mi West 15.0 mph - N/A   Mostly Cloudy
10:35 AM 33.8 °F 22.5 °F 26.6 °F 75% 30.10 in 10.0 mi West 19.6 mph 25.3 mph N/A   Partly Cloudy
10:55 AM 35.6 °F 24.8 °F 26.6 °F 70% 30.09 in 10.0 mi West 19.6 mph 26.5 mph N/A   Clear
11:15 AM 35.6 °F 24.0 °F 24.8 °F 65% 30.09 in 10.0 mi WNW 23.0 mph - N/A   Clear
11:35 AM 35.6 °F 24.2 °F 24.8 °F 65% 30.09 in 10.0 mi WNW 21.9 mph 31.1 mph N/A   Clear
11:55 AM 35.6 °F 24.5 °F 26.6 °F 70% 30.09 in 10.0 mi WNW 20.7 mph 27.6 mph N/A   Clear
12:15 PM 35.6 °F 24.0 °F 26.6 °F 70% 30.08 in 10.0 mi WNW 23.0 mph 28.8 mph N/A   Clear
12:35 PM 37.4 °F 26.9 °F 26.6 °F 65% 30.08 in 10.0 mi WNW 20.7 mph 28.8 mph N/A   Clear
12:55 PM 37.4 °F 26.4 °F 26.6 °F 65% 30.08 in 10.0 mi WNW 23.0 mph 29.9 mph N/A   Clear
1:15 PM 37.4 °F 27.2 °F 26.6 °F 65% 30.08 in 10.0 mi WNW 19.6 mph 27.6 mph N/A   Partly Cloudy
1:35 PM 37.4 °F 25.4 °F 23.0 °F 56% 30.08 in 10.0 mi WNW 27.6 mph 34.5 mph N/A   Scattered Clouds
1:55 PM 37.4 °F 26.9 °F 19.4 °F 48% 30.08 in 10.0 mi WNW 20.7 mph 31.1 mph N/A   Partly Cloudy
2:15 PM 35.6 °F 23.4 °F 19.4 °F 52% 30.09 in 10.0 mi WNW 25.3 mph - N/A   Clear
2:35 PM 35.6 °F 23.4 °F 17.6 °F 48% 30.09 in 10.0 mi WNW 25.3 mph 33.4 mph N/A   Clear
2:55 PM 35.6 °F 24.0 °F 19.4 °F 52% 30.10 in 10.0 mi WNW 23.0 mph - N/A   Clear
3:15 PM 35.6 °F 25.2 °F 21.2 °F 56% 30.10 in 10.0 mi WNW 18.4 mph 25.3 mph N/A   Clear
3:35 PM 33.8 °F 21.6 °F 19.4 °F 56% 30.11 in 10.0 mi WNW 23.0 mph - N/A   Clear
3:55 PM 33.8 °F 22.5 °F 19.4 °F 56% 30.12 in 10.0 mi WNW 19.6 mph 26.5 mph N/A   Clear
4:15 PM 32.0 °F 20.8 °F 19.4 °F 60% 30.12 in 10.0 mi WNW 17.3 mph - N/A   Clear
4:35 PM 32.0 °F 19.5 °F 19.4 °F 60% 30.13 in 10.0 mi WNW 21.9 mph 28.8 mph N/A   Clear
4:55 PM 32.0 °F 20.5 °F 21.2 °F 64% 30.13 in 10.0 mi WNW 18.4 mph - N/A   Clear
5:15 PM 32.0 °F 19.8 °F 19.4 °F 60% 30.14 in 10.0 mi WNW 20.7 mph 26.5 mph N/A   Clear
5:35 PM 30.2 °F 16.8 °F 19.4 °F 64% 30.14 in 10.0 mi WNW 23.0 mph - N/A   Clear
5:55 PM 30.2 °F 17.1 °F 19.4 °F 64% 30.15 in 10.0 mi WNW 21.9 mph 29.9 mph N/A   Clear
6:15 PM 30.2 °F 18.5 °F 19.4 °F 64% 30.16 in 10.0 mi WNW 17.3 mph 24.2 mph N/A   Clear
6:35 PM 28.4 °F 15.8 °F 17.6 °F 64% 30.16 in 10.0 mi WNW 18.4 mph 25.3 mph N/A   Clear
6:55 PM 28.4 °F 17.0 °F 17.6 °F 64% 30.17 in 10.0 mi WNW 15.0 mph 21.9 mph N/A   Clear
7:15 PM 26.6 °F 16.8 °F 17.6 °F 69% 30.17 in 10.0 mi West 10.4 mph - N/A   Clear
7:35 PM 26.6 °F 15.2 °F 17.6 °F 69% 30.18 in 10.0 mi WNW 13.8 mph - N/A   Clear
7:55 PM 26.6 °F 14.3 °F 17.6 °F 69% 30.18 in 10.0 mi WNW 16.1 mph - N/A   Clear
8:15 PM 26.6 °F 15.7 °F 15.8 °F 64% 30.19 in 10.0 mi West 12.7 mph 18.4 mph N/A   Clear
8:35 PM 26.6 °F 15.2 °F 15.8 °F 64% 30.19 in 10.0 mi WNW 13.8 mph - N/A   Clear
8:55 PM 26.6 °F 15.7 °F 15.8 °F 64% 30.19 in 10.0 mi West 12.7 mph - N/A   Clear
9:15 PM 26.6 °F 15.7 °F 15.8 °F 64% 30.19 in 10.0 mi West 12.7 mph 18.4 mph N/A   Clear
9:35 PM 24.8 °F 15.3 °F 15.8 °F 69% 30.20 in 10.0 mi West 9.2 mph - N/A   Clear
9:55 PM 24.8 °F 13.4 °F 15.8 °F 69% 30.20 in 10.0 mi West 12.7 mph - N/A   Clear
10:15 PM 23.0 °F 11.1 °F 15.8 °F 74% 30.21 in 10.0 mi West 12.7 mph - N/A   Clear
10:35 PM 23.0 °F 11.7 °F 15.8 °F 74% 30.21 in 10.0 mi West 11.5 mph - N/A   Clear
10:55 PM 23.0 °F 13.1 °F 15.8 °F 74% 30.21 in 10.0 mi West 9.2 mph - N/A   Clear
11:15 PM 23.0 °F 14.7 °F 14.0 °F 68% 30.21 in 10.0 mi West 6.9 mph - N/A   Clear
11:35 PM 23.0 °F 18.4 °F 14.0 °F 68% 30.21 in 10.0 mi SW 3.5 mph - N/A   Clear
11:55 PM 21.2 °F - 14.0 °F 74% 30.20 in 10.0 mi Calm Calm - N/A   Clear